Pagina principale
METAR-TAF:

METAR-TAF

Aeroporti :

Aeroporto di Costantina-Mohamed Boudiaf

Costantina, Algeria

latitudine: 36-17N, longitudine: 006-37E, altezza: 694 m

Osservazione

Il bollettino è stato emesso 1 ora e 8 minuti fa, alle 00:00 UTC
Vento calmo
Temperature 18°C
Umidità 45%
Pressione 1020 hPa
Visibilità 10 km o più
nessuna nube inferiore a 1500 m e nessun cumulonembo

METAR: DABC 150000Z 00000KT CAVOK 18/06 Q1020

Ora: 02:08 (01:08 UTC)

Previsione

Il bollettino è stato emesso 2 ore e 8 minuti fa, alle 23:00 UTC
Previsione valida dal 15 alle 00 UTC al 15 alle 24 UTC
Vento 8 kt da nord/nord-est
Visibilità 10 km o più
nessuna nube inferiore a 1500 m e nessun cumulonembo
Probabilità 30% :
Temporaneamente
dal 15 alle 12 UTC al 15 alle 18 UTC
Poco nuvoloso ad un'altezza di 2600 ft, Cumulo congesto.

TAF: DABC 142300Z 1500/1524 02008KT CAVOK PROB30 TEMPO 1512/1518 FEW026TCU

Osservazioni e previsioni meteorologiche di più di 4000 aeroporti (messaggi METAR e TAF).

Le stazioni disponibili sono rappresentate dai dischi gialli e rossi sulla carta.

Puntare il mouse per vedere il nome della stazione.

Clicca sopra per visualizzare le osservazioni e previsioni meteorologiche.

Per cambiare la mappa : fare clic sui pulsanti verdi con una croce nera per ingrandire, il pulsante verde con un trattino per diminuire, o sulla freccia verde per le mappe adiacenti.


METAR-TAF: